Accueil
METAR-TAF:

METAR-TAF

Aéroports :

Tarente, Italie

latitude: 40-31N, longitude: 017-24E, altitude: 64 m

Observation

Le bulletin a été fait il y a 10 heures et 33 minutes, à 18:50 UTC
Vent 6 kt de nord-est
Température 13°C
Humidité 94%
Pression 1010 hPa
Visibilité 10 km ou plus
Nuages épars à une hauteur de 3000 ft
pluie faible

METAR: LIBG 291850Z 05006KT 9999 -RA SCT030 13/12 Q1010

Heure: 06:23 (05:23 UTC)

Prévision

Le bulletin a été fait il y a 12 heures et 23 minutes, à 17:00 UTC
Prévision valable du 29 à 18 UTC au 30 à 03 UTC
Vent 10 kt de est/sud-est
Visibilité 10 km ou plus
Nuages fragmentés à une hauteur de 2000 ft
Evoluant progressivement
du 29 à 22 UTC au 29 à 24 UTC
Vent 15 kt de nord

TAF: LIBG 291700Z 2918/3003 11010KT 9999 BKN020 BECMG 2922/2924 01015KT

Observations et prévisions météorologiques de plus de 4000 aéroports (messages METAR et TAF).

Les stations disponibles sont représentées par des disques jaunes et rouges sur la carte.

Passer la souris dessus pour voir le nom de la station.

Cliquer dessus pour voir les observations et prévisions météorologiques.

Pour changer de carte: cliquez sur les boutons verts avec une croix noire pour zoomer, sur le bouton vert avec un tiret pour effectuer un zoom arrière, ou sur les flèches vertes pour les cartes adjacentes.


METAR-TAF: